Negley, Ohio
Current Conditions -  °F | °C
As of 12:47 PM on Tuesday 21 Oct 2014 (Local Time) from KBVI Reporting Station
Overcast Overcast  
Wind Chill: 52°   Ceiling: 700
Heat Index: 52°   Visibility: 10mi
Dew Point: 48°   Wind: 3mph
Humidity: 88%   Direction: 330°NNW
Pressure: 29.9"   Gusts: NA
Location:  40.79°N, 80.54°W
Report Text: KBVI 211647Z 33003KT 10SM OVC007 11/09 A2990
Loading
Personal Weather Stations






























Interactive Weather Map
Tropical Storm Tracking
New forecast layout! Learn more

10-Day Weather Forecast

Advertisements
Track Severe Weather on mobile